Main page
METAR-TAF:

METAR-TAF

Airports :

Ljungbyheds flygplats

Ljungbyhed, Sweden

latitude: 56-04N, longitude: 013-12E, elevation: 43 m

Current weather observation

The report was made 42 minutes ago, at 18:50 UTC
Wind 7 kt from the South
Temperature 18°C
Humidity 68%
Pressure 1012 hPa
Visibility 10 km or more

METAR: ESTL 141850Z AUTO 19007KT 9999 NCD 18/12 Q1012

Time: 21:32 (19:32 UTC)


TAF: missing

Weather observations and forecasts of more than 4000 airports (METAR and TAF reports).

The available stations are represented by yellow and red dots on the map.

Hover mouse over dot to see the name of the station.

Then click to see weather observations and forecasts.

To change the map : click on the green buttons with a black cross to zoom in, on the green button with a dash to zoom out, or on the green arrows for adjacent maps.


METAR-TAF: